Terminal Aerodrome Forecast
Issued by NWS

Home | Current Version | Previous Version | Text Only | Print | Product List | Glossary On
Versions: 1 2 3 4 5 6 7 8 9 10 11 12
000
FTUS41 KPHI 010520
TAFMIV
TAF
KMIV 010520Z 0106/0206 25004KT P6SM SKC
      TEMPO 0109/0112 4SM BR
     FM011300 35005KT P6SM FEW050
     FM011800 16005KT P6SM FEW250=

USA.gov is the U.S. government's official web portal to all federal, state and local government web resources and services.